Time;durP1;ratioP1;P1;durP2;ratioP2;P2;SDS_P1;SDS_P2;PMS_P1;PMS_P2;Temp;Humidity;BMP_temperature;BMP_pressure;BME280_temperature;BME280_humidity;BME280_pressure;Samples;Min_cycle;Max_cycle;Signal;HPM_P1;HPM_P2
2021/12/12 00:00:51;;;;;;;18.83;9.33;;;;;;;0.96;85.53;100125.27;1336940;93;23028;-88
2021/12/12 00:03:33;;;;;;;17.35;10.30;;;;;;;0.96;85.25;100119.23;1483360;93;21649;-87
2021/12/12 00:06:05;;;;;;;20.00;9.47;;;;;;;0.98;85.50;100114.73;1361464;94;21441;-88
2021/12/12 00:08:28;;;;;;;17.50;9.80;;;;;;;0.98;85.34;100113.44;1331735;97;21577;-88
2021/12/12 00:11:06;;;;;;;21.17;11.67;;;;;;;0.97;85.14;100110.00;1525002;89;21525;-85
2021/12/12 00:13:45;;;;;;;22.17;11.40;;;;;;;1.02;85.28;100115.77;1372063;90;21755;-84
2021/12/12 00:16:13;;;;;;;18.50;9.43;;;;;;;1.02;85.03;100103.21;1366706;91;22790;-85
2021/12/12 00:18:40;;;;;;;19.20;10.53;;;;;;;1.05;85.23;100112.14;1438128;89;21495;-87
2021/12/12 00:21:10;;;;;;;24.43;12.57;;;;;;;1.05;84.92;100113.45;1500467;90;22032;-89
2021/12/12 00:23:38;;;;;;;17.90;9.53;;;;;;;1.06;85.10;100121.63;1440501;90;21700;-87
2021/12/12 00:26:06;;;;;;;13.73;7.63;;;;;;;1.09;84.89;100127.52;1442094;90;21543;-87
2021/12/12 00:28:34;;;;;;;16.07;9.10;;;;;;;1.07;84.86;100129.84;1435074;90;21562;-87
2021/12/12 00:31:09;;;;;;;20.93;12.13;;;;;;;1.09;84.70;100121.44;1440230;90;21645;-87
2021/12/12 00:33:40;;;;;;;14.80;8.87;;;;;;;1.15;84.67;100126.27;1442888;90;21766;-87
2021/12/12 00:36:14;;;;;;;16.53;9.37;;;;;;;1.13;84.65;100125.08;1440258;90;21710;-87
2021/12/12 00:38:39;;;;;;;17.57;10.57;;;;;;;1.16;84.52;100130.56;1436690;90;21708;-87
2021/12/12 00:41:10;;;;;;;20.43;11.47;;;;;;;1.20;84.75;100129.91;1432718;90;21738;-87
2021/12/12 00:43:43;;;;;;;18.12;8.70;;;;;;;1.20;84.50;100128.59;1441468;90;21874;-87
2021/12/12 00:46:11;;;;;;;16.90;9.33;;;;;;;1.17;84.28;100132.23;1441242;90;21576;-87
2021/12/12 00:48:42;;;;;;;16.67;7.83;;;;;;;1.21;84.28;100127.22;1436409;90;22153;-88
2021/12/12 00:51:14;;;;;;;17.80;8.90;;;;;;;1.19;84.31;100133.45;1434578;90;22525;-86
2021/12/12 00:53:44;;;;;;;19.40;10.77;;;;;;;1.22;84.30;100131.95;1440305;90;21670;-87
2021/12/12 00:56:12;;;;;;;14.10;7.53;;;;;;;1.24;84.70;100124.89;1441570;90;21732;-88
2021/12/12 00:58:39;;;;;;;14.87;7.40;;;;;;;1.20;84.24;100128.59;1440850;90;21683;-85
2021/12/12 01:01:12;;;;;;;20.13;10.87;;;;;;;1.21;84.32;100134.17;1447019;90;22119;-86
2021/12/12 01:03:48;;;;;;;20.13;11.30;;;;;;;1.28;84.70;100135.48;1442826;90;21671;-86
2021/12/12 01:06:16;;;;;;;20.40;8.90;;;;;;;1.26;84.68;100135.56;1439490;89;23071;-86
2021/12/12 01:08:47;;;;;;;17.27;8.57;;;;;;;1.25;84.49;100136.51;1440002;90;21801;-87
2021/12/12 01:11:31;;;;;;;19.65;8.48;;;;;;;1.28;84.38;100131.10;1438302;90;22837;-87
2021/12/12 01:14:01;;;;;;;18.77;11.67;;;;;;;1.25;84.18;100132.59;1439148;90;21532;-87
2021/12/12 01:16:34;;;;;;;14.37;8.60;;;;;;;1.27;84.15;100128.13;1445652;89;21644;-86
2021/12/12 01:19:13;;;;;;;15.03;8.50;;;;;;;1.30;83.96;100125.33;1440271;90;21833;-87
2021/12/12 01:21:45;;;;;;;24.30;13.87;;;;;;;1.30;83.64;100130.55;1443958;90;21678;-87
2021/12/12 01:24:24;;;;;;;16.87;8.40;;;;;;;1.35;84.25;100126.33;1439425;90;21636;-89
2021/12/12 01:26:53;;;;;;;20.37;11.20;;;;;;;1.32;83.67;100130.44;1424341;90;21756;-84
2021/12/12 01:29:21;;;;;;;17.67;9.40;;;;;;;1.31;84.03;100124.39;1436279;90;21780;-88
2021/12/12 01:31:49;;;;;;;21.53;11.63;;;;;;;1.32;83.78;100122.17;1441494;90;21346;-87
2021/12/12 01:34:24;;;;;;;22.93;12.37;;;;;;;1.31;83.67;100118.34;1439823;90;21751;-86
2021/12/12 01:39:37;;;;;;;21.35;9.38;;;;;;;1.37;83.56;100110.61;1442530;90;21855;-88
2021/12/12 01:42:26;;;;;;;17.97;10.53;;;;;;;1.31;83.62;100118.34;1438145;90;21681;-87
2021/12/12 01:45:01;;;;;;;22.47;11.13;;;;;;;1.32;83.52;100117.40;1436346;90;21883;-87
2021/12/12 01:47:51;;;;;;;25.63;11.37;;;;;;;1.31;83.49;100126.16;1442444;90;21818;-88
2021/12/12 01:50:24;;;;;;;26.40;14.87;;;;;;;1.37;83.62;100117.12;1436526;90;21807;-88
2021/12/12 01:52:52;;;;;;;29.87;15.90;;;;;;;1.33;83.34;100117.31;1436797;90;21755;-87
2021/12/12 01:55:38;;;;;;;21.20;13.30;;;;;;;1.34;83.35;100115.54;1437555;90;21753;-87
2021/12/12 01:58:10;;;;;;;18.40;10.63;;;;;;;1.33;83.20;100112.10;1437381;90;21939;-87
2021/12/12 02:01:02;;;;;;;26.03;14.63;;;;;;;1.37;82.89;100114.52;1440738;90;22696;-88
2021/12/12 02:03:34;;;;;;;26.67;14.13;;;;;;;1.38;83.12;100108.36;1437079;90;21598;-86
2021/12/12 02:06:06;;;;;;;19.97;11.90;;;;;;;1.41;83.32;100108.16;1436054;90;21740;-86
2021/12/12 02:08:35;;;;;;;20.67;12.43;;;;;;;1.38;82.75;100101.36;1441620;90;21562;-88
2021/12/12 02:11:08;;;;;;;31.57;15.50;;;;;;;1.38;82.31;100104.45;1456220;88;21811;-87
2021/12/12 02:13:43;;;;;;;19.83;12.17;;;;;;;1.42;82.60;100104.64;1471676;88;21731;-87
2021/12/12 02:16:11;;;;;;;23.30;11.47;;;;;;;1.40;82.27;100094.29;1456974;88;21745;-87
2021/12/12 02:18:46;;;;;;;31.37;14.80;;;;;;;1.40;82.27;100094.29;1477524;88;22214;-88
2021/12/12 02:21:27;;;;;;;29.17;14.23;;;;;;;1.41;82.36;100112.07;1468340;88;22612;-87
2021/12/12 02:35:42;;;;;;;24.27;14.20;;;;;;;1.37;81.84;100119.73;1474695;88;21796;-87
2021/12/12 02:38:00;;;;;;;27.33;14.27;;;;;;;1.41;81.81;100092.52;1470669;88;21687;-87
2021/12/12 02:40:33;;;;;;;26.03;14.33;;;;;;;1.43;82.06;100103.69;1474209;88;21871;-88
2021/12/12 02:43:01;;;;;;;23.63;13.70;;;;;;;1.41;81.96;100105.11;1473583;88;21697;-87
2021/12/12 02:45:32;;;;;;;28.77;14.70;;;;;;;1.40;82.17;100111.23;1476763;88;21992;-87
2021/12/12 02:48:04;;;;;;;25.97;13.18;;;;;;;1.41;81.96;100110.33;1478922;88;21653;-88
2021/12/12 02:50:34;;;;;;;29.73;13.07;;;;;;;1.42;81.85;100110.69;1473056;88;21453;-88
2021/12/12 02:53:09;;;;;;;21.23;12.10;;;;;;;1.42;81.83;100095.04;1448692;88;21709;-87
2021/12/12 02:55:42;;;;;;;27.27;14.07;;;;;;;1.42;81.77;100115.06;1472135;88;22483;-86
2021/12/12 02:58:14;;;;;;;33.27;15.60;;;;;;;1.47;81.55;100126.05;1466225;88;21778;-86
2021/12/12 03:00:46;;;;;;;25.57;12.67;;;;;;;1.44;81.50;100132.30;1472387;88;21805;-86
2021/12/12 03:03:16;;;;;;;28.67;12.73;;;;;;;1.44;81.50;100132.30;1471835;88;22735;-86
2021/12/12 03:05:46;;;;;;;26.80;15.10;;;;;;;1.46;81.79;100128.27;1470216;88;21675;-85
2021/12/12 03:08:16;;;;;;;28.20;15.63;;;;;;;1.44;82.10;100126.22;1468663;88;21607;-86
2021/12/12 03:10:48;;;;;;;31.77;17.13;;;;;;;1.43;81.77;100099.78;1461018;88;21601;-86
2021/12/12 03:13:16;;;;;;;32.10;16.13;;;;;;;1.44;81.96;100121.86;1470115;88;21680;-85
2021/12/12 03:15:48;;;;;;;39.03;18.03;;;;;;;1.44;81.18;100121.00;1470656;88;21745;-85
2021/12/12 03:18:26;;;;;;;34.20;15.40;;;;;;;1.48;81.81;100132.94;1476743;88;21760;-85
2021/12/12 03:20:59;;;;;;;27.93;12.33;;;;;;;1.43;81.56;100133.69;1464963;88;22678;-84
2021/12/12 03:23:33;;;;;;;29.83;15.40;;;;;;;1.42;81.25;100134.63;1468807;88;21781;-85
2021/12/12 03:26:08;;;;;;;33.83;18.03;;;;;;;1.44;81.73;100129.69;1479181;88;22587;-85
2021/12/12 03:28:40;;;;;;;32.87;15.77;;;;;;;1.44;81.01;100115.78;1480518;88;21512;-82
2021/12/12 03:31:18;;;;;;;28.03;14.50;;;;;;;1.44;81.01;100115.78;1467560;88;22843;-83
2021/12/12 03:33:46;;;;;;;22.47;11.97;;;;;;;1.48;81.14;100122.50;1473720;88;21830;-86
2021/12/12 03:36:16;;;;;;;31.03;14.73;;;;;;;1.47;80.91;100126.05;1483801;88;21819;-85
2021/12/12 03:38:48;;;;;;;25.13;13.00;;;;;;;1.50;80.74;100149.33;1477613;88;21779;-90
2021/12/12 03:41:21;;;;;;;32.13;14.97;;;;;;;1.50;80.64;100138.90;1471620;88;21677;-85
2021/12/12 03:43:56;;;;;;;30.67;13.40;;;;;;;1.50;80.79;100141.03;1472889;88;21997;-84
2021/12/12 03:46:23;;;;;;;27.53;15.47;;;;;;;1.50;80.71;100138.90;1431172;88;21769;-86
2021/12/12 03:48:52;;;;;;;30.53;12.63;;;;;;;1.52;81.34;100143.06;1477967;88;22497;-85
2021/12/12 03:51:23;;;;;;;28.67;14.10;;;;;;;1.47;80.93;100136.48;1467159;88;23208;-86
2021/12/12 03:53:52;;;;;;;30.83;14.47;;;;;;;1.49;80.46;100152.38;1470372;88;21698;-86
2021/12/12 03:56:19;;;;;;;33.73;15.97;;;;;;;1.51;80.78;100147.08;1451330;88;21912;-87
2021/12/12 03:58:48;;;;;;;31.87;15.30;;;;;;;1.52;80.39;100148.75;1479231;88;21666;-89
2021/12/12 04:01:27;;;;;;;29.53;13.80;;;;;;;1.50;80.19;100153.25;1473983;88;21651;-87
2021/12/12 04:03:58;;;;;;;22.90;12.83;;;;;;;1.49;80.24;100158.91;1473064;88;21702;-88
2021/12/12 04:06:27;;;;;;;;;;;;;;;1.47;79.95;100169.09;1482248;88;21572;-88
2021/12/12 04:08:54;;;;;;;30.40;14.47;;;;;;;1.50;80.04;100153.25;1467918;88;20353;-89
2021/12/12 04:11:27;;;;;;;32.80;12.47;;;;;;;1.48;80.08;100151.19;1480488;88;21801;-88
2021/12/12 04:13:57;;;;;;;28.77;13.77;;;;;;;1.48;80.28;100160.31;1473284;88;21572;-87
2021/12/12 04:16:28;;;;;;;23.97;11.73;;;;;;;1.52;79.86;100166.53;1467822;88;21688;-87
2021/12/12 04:18:57;;;;;;;31.42;14.30;;;;;;;1.48;79.69;100156.41;1474315;88;21713;-88
2021/12/12 04:21:26;;;;;;;28.40;13.20;;;;;;;1.49;79.97;100159.37;1473716;88;21380;-87
2021/12/12 04:23:54;;;;;;;27.63;13.00;;;;;;;1.48;79.75;100153.80;1472170;88;21831;-86
2021/12/12 04:26:30;;;;;;;26.90;14.97;;;;;;;1.49;79.36;100150.25;1477624;88;22470;-87
2021/12/12 04:29:33;;;;;;;29.37;15.73;;;;;;;1.48;79.15;100151.19;1477504;88;21738;-87
2021/12/12 04:32:08;;;;;;;25.43;13.67;;;;;;;1.52;79.98;100155.27;1473942;88;21669;-86
2021/12/12 04:34:41;;;;;;;36.83;14.47;;;;;;;1.45;79.56;100157.43;1474747;88;21859;-88
2021/12/12 04:37:10;;;;;;;23.43;12.27;;;;;;;1.44;79.42;100152.30;1478016;88;22779;-87
2021/12/12 04:39:41;;;;;;;26.53;13.80;;;;;;;1.45;80.00;100147.47;1480650;88;22571;-87
2021/12/12 04:42:14;;;;;;;30.43;13.40;;;;;;;1.43;79.87;100155.85;1464596;88;21765;-87
2021/12/12 04:44:43;;;;;;;26.90;11.60;;;;;;;1.39;80.48;100144.78;1478331;88;21624;-86
2021/12/12 04:50:33;;;;;;;29.97;14.13;;;;;;;1.44;79.96;100161.42;1479077;88;21623;-87
2021/12/12 04:53:15;;;;;;;22.87;11.30;;;;;;;1.38;80.06;100173.55;1476308;88;22652;-86
2021/12/12 04:56:05;;;;;;;28.13;12.10;;;;;;;1.37;79.98;100156.23;1478567;88;22613;-87
2021/12/12 04:59:10;;;;;;;27.60;13.57;;;;;;;1.33;80.15;100169.47;1470999;88;21682;-86
2021/12/12 05:02:04;;;;;;;28.20;15.03;;;;;;;1.34;80.15;100166.39;1474176;88;21653;-87
2021/12/12 05:04:46;;;;;;;27.87;14.00;;;;;;;1.38;80.66;100174.38;1476889;88;21757;-85
2021/12/12 05:07:28;;;;;;;22.00;11.17;;;;;;;1.39;80.51;100178.68;1473270;88;21721;-86
2021/12/12 05:10:22;;;;;;;25.57;12.97;;;;;;;1.38;80.50;100168.33;1471505;88;21779;-86
2021/12/12 05:12:57;;;;;;;28.20;12.03;;;;;;;1.40;80.99;100178.21;1475762;88;21711;-86
2021/12/12 05:15:39;;;;;;;27.27;13.70;;;;;;;1.34;81.10;100167.22;1468723;88;22503;-87
2021/12/12 05:18:19;;;;;;;;;;;;;;;1.29;80.74;100170.57;1475674;88;21504;-87
2021/12/12 05:20:52;;;;;;;25.62;12.75;;;;;;;1.30;82.24;100176.65;1465994;88;20361;-85
2021/12/12 05:23:22;;;;;;;27.90;13.70;;;;;;;1.17;82.81;100177.02;1471984;88;21577;-88
2021/12/12 05:25:58;;;;;;;23.38;11.63;;;;;;;1.16;83.66;100178.80;1449716;88;21825;-89
2021/12/12 05:28:34;;;;;;;26.00;12.00;;;;;;;1.13;83.39;100167.25;1474773;88;22576;-88
2021/12/12 05:31:04;;;;;;;31.53;13.40;;;;;;;1.08;83.78;100181.02;1471283;88;21731;-89
2021/12/12 05:33:32;;;;;;;21.10;11.97;;;;;;;1.03;84.52;100180.45;1476221;88;22766;-86
2021/12/12 05:36:00;;;;;;;28.80;14.37;;;;;;;0.99;85.44;100176.37;1474120;88;22648;-87
2021/12/12 05:38:29;;;;;;;21.10;10.70;;;;;;;0.97;85.57;100186.88;1475446;88;22602;-87
2021/12/12 05:40:57;;;;;;;27.43;10.47;;;;;;;0.90;85.90;100184.28;1471916;88;21478;-87
2021/12/12 05:43:25;;;;;;;20.97;11.90;;;;;;;0.84;86.14;100175.06;1478922;88;21875;-86
2021/12/12 05:45:54;;;;;;;24.00;12.60;;;;;;;0.81;87.03;100180.45;1469635;88;21764;-86
2021/12/12 05:48:23;;;;;;;24.40;12.30;;;;;;;0.77;87.16;100184.16;1479229;88;21639;-87
2021/12/12 05:50:52;;;;;;;20.87;11.27;;;;;;;0.76;87.71;100180.36;1479729;88;21749;-85
2021/12/12 05:53:20;;;;;;;20.90;11.27;;;;;;;0.72;87.68;100173.20;1485366;88;22688;-87
2021/12/12 05:55:50;;;;;;;26.37;14.67;;;;;;;0.72;87.64;100183.61;1467224;88;22613;-88
2021/12/12 05:58:21;;;;;;;32.97;12.07;;;;;;;0.74;88.18;100191.32;1480181;88;21623;-86
2021/12/12 06:01:02;;;;;;;27.07;11.15;;;;;;;0.72;88.06;100196.64;1478453;88;21792;-86
2021/12/12 06:03:37;;;;;;;15.18;9.35;;;;;;;0.72;87.60;100188.83;1462113;88;21431;-86
2021/12/12 06:06:08;;;;;;;25.30;10.63;;;;;;;0.77;86.88;100182.85;1468217;88;21276;-87
2021/12/12 06:08:36;;;;;;;25.93;11.17;;;;;;;0.78;87.27;100184.55;1480977;88;21515;-87
2021/12/12 06:11:05;;;;;;;22.70;11.23;;;;;;;0.77;86.50;100182.85;1468917;88;21609;-87
2021/12/12 06:13:34;;;;;;;19.03;10.63;;;;;;;0.78;87.46;100194.97;1475835;88;22658;-87
2021/12/12 06:16:02;;;;;;;19.00;10.77;;;;;;;0.79;86.66;100180.17;1466726;88;22554;-86
2021/12/12 06:18:32;;;;;;;21.57;12.50;;;;;;;0.78;86.14;100186.32;1471163;88;21673;-86
2021/12/12 06:21:00;;;;;;;20.47;11.47;;;;;;;0.81;86.67;100184.83;1466845;88;21848;-86
2021/12/12 06:23:28;;;;;;;19.63;11.50;;;;;;;0.79;86.01;100179.70;1476389;88;21811;-87
2021/12/12 06:25:56;;;;;;;17.13;9.63;;;;;;;0.82;85.81;100176.91;1468842;88;21825;-86
2021/12/12 06:28:32;;;;;;;26.83;13.30;;;;;;;0.87;84.80;100180.09;1474597;88;21636;-86
2021/12/12 06:31:00;;;;;;;17.13;9.23;;;;;;;0.91;85.40;100167.70;1465293;88;21808;-87
2021/12/12 06:33:28;;;;;;;29.70;14.37;;;;;;;0.93;84.32;100175.45;1474391;88;21762;-87
2021/12/12 06:35:55;;;;;;;18.67;10.97;;;;;;;0.94;83.90;100174.50;1461462;88;21995;-83
2021/12/12 06:38:24;;;;;;;31.97;14.53;;;;;;;0.96;82.88;100171.34;1476504;88;21779;-85
2021/12/12 06:40:53;;;;;;;21.03;11.17;;;;;;;1.01;82.76;100178.43;1472716;88;21610;-86
2021/12/12 06:43:23;;;;;;;43.87;16.63;;;;;;;0.98;81.84;100172.94;1476112;88;21552;-86
2021/12/12 06:45:51;;;;;;;22.20;10.10;;;;;;;1.02;82.95;100163.98;1474624;88;22236;-86
2021/12/12 06:48:19;;;;;;;24.47;11.43;;;;;;;1.02;82.03;100173.58;1471748;88;21616;-88
2021/12/12 06:50:52;;;;;;;38.40;16.93;;;;;;;1.02;81.07;100168.37;1481320;88;21542;-86
2021/12/12 06:53:23;;;;;;;25.47;12.73;;;;;;;1.07;81.68;100183.27;1469827;88;21697;-87
2021/12/12 06:55:52;;;;;;;19.90;10.00;;;;;;;1.07;81.56;100175.45;1475305;88;21682;-86
2021/12/12 06:58:21;;;;;;;22.07;11.47;;;;;;;1.07;81.24;100168.46;1482796;88;21593;-87
2021/12/12 07:00:54;;;;;;;17.93;9.13;;;;;;;1.12;81.06;100166.42;1472432;88;21578;-87
2021/12/12 07:03:22;;;;;;;18.27;10.20;;;;;;;1.09;80.33;100164.00;1489876;88;21764;-87
2021/12/12 07:05:50;;;;;;;17.83;9.03;;;;;;;1.15;80.51;100173.19;1472618;88;21600;-87
2021/12/12 07:08:21;;;;;;;23.13;12.10;;;;;;;1.19;79.99;100202.06;1474563;88;22692;-88
2021/12/12 07:10:49;;;;;;;21.68;9.85;;;;;;;1.19;79.11;100186.42;1466326;88;21620;-88
2021/12/12 07:13:16;;;;;;;22.60;10.93;;;;;;;1.23;79.22;100182.69;1449275;89;21596;-88
2021/12/12 07:15:49;;;;;;;17.80;9.60;;;;;;;1.27;79.17;100184.19;1436472;91;22179;-87
2021/12/12 07:18:20;;;;;;;19.30;10.40;;;;;;;1.25;78.69;100188.66;1432173;91;21597;-87
2021/12/12 07:20:52;;;;;;;26.70;12.30;;;;;;;1.28;78.93;100183.72;1428835;91;21663;-88
2021/12/12 07:23:20;;;;;;;24.10;11.17;;;;;;;1.25;78.48;100174.31;1411845;91;21674;-86
2021/12/12 07:25:48;;;;;;;18.73;11.23;;;;;;;1.29;78.33;100181.00;1432814;91;21752;-89
2021/12/12 07:28:16;;;;;;;24.27;12.00;;;;;;;1.33;78.01;100166.86;1420252;91;21731;-87
2021/12/12 07:30:45;;;;;;;21.50;12.30;;;;;;;1.36;78.37;100178.88;1424398;91;21668;-87
2021/12/12 07:33:14;;;;;;;24.10;10.60;;;;;;;1.42;77.97;100173.27;1422225;91;21683;-87
2021/12/12 07:35:44;;;;;;;17.27;10.33;;;;;;;1.42;77.93;100182.87;1429270;91;21699;-87
2021/12/12 07:38:15;;;;;;;20.70;10.20;;;;;;;1.44;77.88;100192.72;1431710;91;22184;-85
2021/12/12 07:40:46;;;;;;;24.80;13.10;;;;;;;1.40;77.70;100192.55;1428789;91;21802;-86
2021/12/12 07:43:14;;;;;;;30.30;13.25;;;;;;;1.46;77.85;100194.78;1429222;91;21631;-87
2021/12/12 07:45:42;;;;;;;22.73;12.20;;;;;;;1.43;78.06;100195.80;1424164;91;21382;-86
2021/12/12 07:48:12;;;;;;;25.40;12.00;;;;;;;1.44;77.65;100196.63;1429826;91;21792;-86
2021/12/12 07:50:43;;;;;;;20.10;9.87;;;;;;;1.43;77.74;100193.19;1423004;91;21677;-86
2021/12/12 07:53:12;;;;;;;21.17;10.97;;;;;;;1.41;77.82;100200.73;1437837;90;21574;-89
2021/12/12 07:55:41;;;;;;;24.83;12.23;;;;;;;1.39;78.09;100196.94;1420741;91;22584;-88
2021/12/12 07:58:12;;;;;;;17.27;10.23;;;;;;;1.39;77.68;100200.84;1427321;91;21694;-89
2021/12/12 08:00:44;;;;;;;22.20;10.60;;;;;;;1.37;78.79;100196.19;1424021;91;21868;-87
2021/12/12 08:03:14;;;;;;;20.67;11.00;;;;;;;1.33;78.03;100202.06;1427627;91;22854;-87
2021/12/12 08:05:42;;;;;;;16.57;9.07;;;;;;;1.28;78.91;100208.02;1425781;91;21722;-87
2021/12/12 08:08:12;;;;;;;25.73;14.73;;;;;;;1.25;79.12;100205.59;1429249;91;22680;-86
2021/12/12 08:10:43;;;;;;;25.67;13.37;;;;;;;1.26;79.29;100192.92;1420365;91;21594;-86
2021/12/12 08:13:14;;;;;;;32.43;16.30;;;;;;;1.25;79.44;100196.47;1432652;91;21674;-86
2021/12/12 08:15:43;;;;;;;28.20;13.17;;;;;;;1.29;79.79;100208.38;1423770;91;21645;-86
2021/12/12 08:18:15;;;;;;;22.43;11.73;;;;;;;1.25;79.57;100202.16;1425785;90;21839;-86
2021/12/12 08:20:46;;;;;;;24.40;12.03;;;;;;;1.26;80.34;100207.27;1425274;91;21602;-87
2021/12/12 08:23:16;;;;;;;21.75;10.82;;;;;;;1.24;79.61;100197.42;1427940;91;21585;-87
2021/12/12 08:25:47;;;;;;;25.37;12.47;;;;;;;1.27;80.26;100208.95;1417690;91;21427;-87
2021/12/12 08:28:15;;;;;;;32.85;15.25;;;;;;;1.30;79.90;100209.24;1417007;91;21656;-86
2021/12/12 08:30:43;;;;;;;22.40;13.53;;;;;;;1.35;80.17;100199.34;1423784;91;21493;-87
2021/12/12 08:33:12;;;;;;;27.83;13.37;;;;;;;1.38;79.45;100203.06;1422934;91;21670;-86
2021/12/12 08:35:42;;;;;;;26.87;13.43;;;;;;;1.42;79.24;100208.95;1406945;91;21451;-86
2021/12/12 08:38:12;;;;;;;28.23;12.67;;;;;;;1.48;80.14;100202.05;1430918;91;21596;-86
2021/12/12 08:40:47;;;;;;;26.85;14.53;;;;;;;1.49;78.33;100207.63;1422198;91;21526;-89
2021/12/12 08:43:20;;;;;;;21.77;11.70;;;;;;;1.56;79.20;100201.95;1420352;91;21582;-86
2021/12/12 08:45:56;;;;;;;21.47;11.33;;;;;;;1.57;78.31;100198.39;1424236;90;21704;-84
2021/12/12 08:48:27;;;;;;;27.07;12.83;;;;;;;1.68;79.09;100187.29;1425618;91;21964;-86
2021/12/12 08:51:02;;;;;;;26.70;13.77;;;;;;;1.68;79.09;100187.29;1419948;91;21688;-88
2021/12/12 08:53:31;;;;;;;20.80;11.53;;;;;;;1.74;79.05;100196.03;1424108;91;21931;-88
2021/12/12 08:55:59;;;;;;;28.93;13.40;;;;;;;1.79;78.46;100190.06;1420383;91;21742;-89
2021/12/12 08:58:31;;;;;;;25.50;13.10;;;;;;;1.79;78.46;100190.06;1425591;91;22807;-87
2021/12/12 09:01:30;;;;;;;26.83;13.63;;;;;;;1.82;78.26;100193.42;1425764;91;22827;-87
2021/12/12 09:04:02;;;;;;;27.07;14.17;;;;;;;1.84;77.21;100177.17;1430958;90;21860;-86
2021/12/12 09:06:34;;;;;;;18.45;10.93;;;;;;;1.88;77.12;100193.03;1431086;91;21737;-86
2021/12/12 09:09:13;;;;;;;23.93;14.60;;;;;;;1.97;77.91;100180.69;1421778;90;21992;-86
2021/12/12 09:12:09;;;;;;;21.13;12.20;;;;;;;1.97;77.91;100180.69;1427368;90;22011;-88
2021/12/12 09:15:10;;;;;;;23.73;11.90;;;;;;;1.96;76.67;100165.97;1431385;90;22082;-87
2021/12/12 09:17:41;;;;;;;;;;;;;;;1.96;76.67;100165.97;1429479;90;22046;-87
2021/12/12 09:20:32;;;;;;;22.95;10.80;;;;;;;2.04;78.03;100172.81;1428787;90;20265;-87
2021/12/12 09:23:10;;;;;;;27.60;13.17;;;;;;;2.04;76.92;100170.20;1435524;90;21426;-87
2021/12/12 09:25:50;;;;;;;24.43;13.00;;;;;;;2.14;76.85;100170.46;1422774;91;21965;-83
2021/12/12 09:28:34;;;;;;;25.80;13.03;;;;;;;2.03;75.61;100151.09;1423695;90;22145;-82
2021/12/12 09:31:28;;;;;;;27.27;12.90;;;;;;;2.12;76.20;100174.47;1438702;91;22939;-79
2021/12/12 09:34:01;;;;;;;25.83;12.87;;;;;;;2.48;76.10;100161.25;1422126;91;22368;-79
2021/12/12 09:36:48;;;;;;;19.77;11.83;;;;;;;2.48;76.10;100161.25;1427043;91;22087;-78
2021/12/12 09:39:38;;;;;;;25.87;12.90;;;;;;;2.58;75.75;100160.98;1443489;90;23142;-80
2021/12/12 09:42:49;;;;;;;22.67;12.83;;;;;;;2.70;74.48;100153.64;1425075;91;22106;-82
2021/12/12 09:45:28;;;;;;;26.33;13.58;;;;;;;2.70;74.48;100153.64;1429879;91;22997;-83
2021/12/12 09:51:31;;;;;;;20.93;12.00;;;;;;;2.45;74.17;100165.38;1437384;91;22330;-81
2021/12/12 09:54:23;;;;;;;26.87;13.87;;;;;;;2.51;74.35;100145.36;1422655;91;22170;-81
2021/12/12 09:57:02;;;;;;;;;;;;;;;2.54;75.30;100146.46;1418402;91;22161;-81
2021/12/12 10:00:03;;;;;;;22.47;11.43;;;;;;;2.48;74.22;100150.80;1428047;91;20439;-81
2021/12/12 10:03:10;;;;;;;17.95;10.05;;;;;;;2.48;74.22;100150.80;1427580;91;22145;-81
2021/12/12 10:06:08;;;;;;;25.80;13.20;;;;;;;2.51;74.79;100140.14;1429311;91;21549;-81
2021/12/12 10:09:07;;;;;;;24.60;11.70;;;;;;;2.49;74.32;100153.77;1415756;90;23084;-81
2021/12/12 10:11:40;;;;;;;23.70;13.13;;;;;;;2.41;74.18;100144.29;1437150;91;23031;-81
2021/12/12 10:14:40;;;;;;;23.13;12.20;;;;;;;2.47;74.80;100154.33;1441962;91;22314;-81
2021/12/12 10:17:48;;;;;;;23.33;12.60;;;;;;;2.47;75.28;100151.72;1435086;89;22266;-81
2021/12/12 10:20:27;;;;;;;25.10;13.00;;;;;;;2.44;74.82;100161.06;1435135;89;22212;-82
2021/12/12 10:23:18;;;;;;;21.97;11.63;;;;;;;2.45;75.76;100160.14;1425730;89;23162;-82
2021/12/12 10:25:50;;;;;;;22.35;10.68;;;;;;;2.42;75.43;100156.43;1427409;91;22136;-82
2021/12/12 10:28:25;;;;;;;21.50;12.47;;;;;;;2.43;75.93;100145.03;1435089;90;22428;-79
2021/12/12 10:31:10;;;;;;;23.70;12.43;;;;;;;2.43;76.24;100161.53;1429390;91;22318;-81
2021/12/12 10:33:51;;;;;;;22.33;11.93;;;;;;;2.43;76.24;100161.53;1433425;90;22227;-81
2021/12/12 10:36:24;;;;;;;18.77;11.87;;;;;;;2.38;75.66;100166.70;1439933;90;22646;-80
2021/12/12 10:38:56;;;;;;;22.63;11.43;;;;;;;2.43;76.19;100173.77;1431992;90;22221;-80
2021/12/12 10:41:46;;;;;;;25.83;12.20;;;;;;;2.48;76.52;100166.47;1411449;91;22313;-80
2021/12/12 10:44:18;;;;;;;20.87;11.67;;;;;;;2.49;76.28;100161.89;1445048;91;22012;-80
2021/12/12 10:47:15;;;;;;;20.93;11.30;;;;;;;2.44;75.79;100161.89;1439344;90;22129;-81
2021/12/12 10:50:24;;;;;;;23.60;11.10;;;;;;;2.48;76.47;100174.30;1433116;91;22249;-82
2021/12/12 10:53:34;;;;;;;19.07;11.33;;;;;;;2.53;76.66;100148.30;1424000;90;22151;-81
2021/12/12 10:56:21;;;;;;;23.87;12.90;;;;;;;2.59;76.27;100148.30;1434712;90;22073;-82
2021/12/12 10:58:58;;;;;;;18.87;10.53;;;;;;;2.59;76.29;100147.44;1426099;90;22610;-82
2021/12/12 11:01:34;;;;;;;17.27;9.60;;;;;;;2.59;76.29;100147.44;1433266;89;23170;-85
2021/12/12 11:04:12;;;;;;;14.97;8.83;;;;;;;2.55;75.52;100159.88;1428220;90;22310;-84
2021/12/12 11:06:48;;;;;;;22.70;11.50;;;;;;;2.55;75.52;100159.88;1425279;91;22085;-81
2021/12/12 11:09:56;;;;;;;21.20;9.33;;;;;;;2.52;76.23;100146.19;1418572;91;22302;-80
2021/12/12 11:12:31;;;;;;;19.03;10.17;;;;;;;2.55;74.78;100166.41;1397918;93;22212;-80
2021/12/12 11:15:25;;;;;;;26.20;13.30;;;;;;;2.57;75.85;100156.70;1429005;91;23230;-81
2021/12/12 11:18:21;;;;;;;20.27;10.47;;;;;;;2.44;76.28;100164.98;1424120;91;22197;-81
2021/12/12 11:20:58;;;;;;;21.40;11.73;;;;;;;2.44;76.28;100164.98;1427037;91;22332;-81
2021/12/12 11:23:52;;;;;;;22.17;11.27;;;;;;;2.48;77.75;100170.39;1433874;91;23177;-82
2021/12/12 11:26:29;;;;;;;19.03;10.80;;;;;;;2.46;77.23;100172.25;1431324;91;22188;-82
2021/12/12 11:29:05;;;;;;;22.37;11.93;;;;;;;2.44;77.76;100167.59;1427540;91;22402;-82
2021/12/12 11:31:38;;;;;;;24.00;12.33;;;;;;;2.43;77.43;100182.44;1426412;91;23260;-82
2021/12/12 11:34:07;;;;;;;19.67;10.87;;;;;;;2.44;77.37;100168.90;1428696;91;22270;-85
2021/12/12 11:37:02;;;;;;;16.73;10.50;;;;;;;2.44;77.37;100168.90;1429998;91;22236;-83
2021/12/12 11:39:41;;;;;;;22.33;11.23;;;;;;;2.48;77.75;100169.91;1428781;91;22310;-82
2021/12/12 11:42:20;;;;;;;22.77;12.23;;;;;;;2.42;77.19;100170.80;1431369;90;22307;-83
2021/12/12 11:44:53;;;;;;;26.23;14.27;;;;;;;2.44;77.35;100171.03;1427473;91;23179;-82
2021/12/12 11:47:35;;;;;;;25.17;12.90;;;;;;;2.48;76.41;100173.83;1433046;91;22677;-82
2021/12/12 11:50:41;;;;;;;21.53;11.60;;;;;;;2.48;76.41;100176.45;1427633;91;22804;-82
2021/12/12 11:53:14;;;;;;;28.30;14.17;;;;;;;2.55;77.46;100186.00;1428445;91;22277;-83
2021/12/12 11:56:02;;;;;;;21.13;13.00;;;;;;;2.55;77.46;100186.00;1467747;91;22187;-82
2021/12/12 11:58:44;;;;;;;27.83;14.03;;;;;;;2.54;78.17;100186.95;1508178;91;21915;-81
2021/12/12 12:01:51;;;;;;;23.63;13.37;;;;;;;2.57;78.95;100189.36;1356144;92;22269;-79
2021/12/12 12:04:39;;;;;;;27.90;17.03;;;;;;;2.59;78.83;100191.41;1411428;91;22101;-80
2021/12/12 12:07:21;;;;;;;28.73;15.80;;;;;;;2.64;79.83;100195.33;1428361;91;23063;-80
2021/12/12 12:10:17;;;;;;;24.43;15.10;;;;;;;2.56;78.75;100197.28;1428189;91;22195;-80
2021/12/12 12:13:25;;;;;;;25.93;12.90;;;;;;;2.56;78.75;100197.28;1427490;90;22167;-80
2021/12/12 12:16:09;;;;;;;28.40;16.83;;;;;;;2.52;79.58;100193.22;1431106;91;23193;-81
2021/12/12 12:19:08;;;;;;;28.00;14.73;;;;;;;2.37;81.65;100189.84;1422882;91;22118;-81